Accueil
METAR-TAF:

METAR-TAF

Aéroports :

Burgos, Espagne

Aéroport de Burgos

latitude: 42-22N, longitude: 003-38W, altitude: 894 m

Observation

Le bulletin a été fait il y a 21 minutes, à 01:30 UTC
Vent 2 kt de nord
Température 12°C
Humidité 67%
Pression 1022 hPa
Visibilité 10 km ou plus

METAR: LEBG 170130Z AUTO 01002KT 9999 NCD 12/06 Q1022

Heure: 03:51 (01:51 UTC)

Prévision

Le bulletin a été fait il y a 8 heures et 51 minutes, à 17:00 UTC
Prévision valable du 16 à 18 UTC au 17 à 03 UTC
Vent 10 kt de est/nord-est
Visibilité 10 km ou plus
Quelques nuages à une hauteur de 4000 ft

TAF: LEBG 161700Z 1618/1703 06010KT 9999 FEW040

Observations et prévisions météorologiques de plus de 4000 aéroports (messages METAR et TAF).

Les stations disponibles sont représentées par des disques jaunes et rouges sur la carte.

Passer la souris dessus pour voir le nom de la station.

Cliquer dessus pour voir les observations et prévisions météorologiques.

Pour changer de carte: cliquez sur les boutons verts avec une croix noire pour zoomer, sur le bouton vert avec un tiret pour effectuer un zoom arrière, ou sur les flèches vertes pour les cartes adjacentes.


METAR-TAF: